Historique des stations

Station météo de Colombiers

Altitude de la station : 182 m







Données météorologiques pour le 04/12/2022
Date
Heure
Températures Humidité Point de rosée Vitesse
du vent
Direction Rafales Windchill Pression Pluviométrie
Cumul
Date
Heure
Températures Humidité Point de rosée Vitesse
du vent
Direction Rafales Windchill Pression Pluviométrie
Cumul
04/12/2022 16:103.6 °C97 %3.1 °C3 km/hOSO6 km/h01011 hPa2.8 mm
04/12/2022 15:503.7 °C96 %3.1 °C4 km/hOSO8 km/h01011 hPa2.4 mm
04/12/2022 15:403.8 °C97 %3.3 °C4 km/hO6 km/h01011 hPa2.4 mm
04/12/2022 15:203.9 °C96 %3.4 °C4 km/hOSO8 km/h01011 hPa2.2 mm
04/12/2022 15:103.9 °C96 %3.4 °C4 km/hOSO6 km/h01011 hPa2.0 mm
04/12/2022 14:504 °C96 %3.4 °C3 km/hOSO6 km/h01011 hPa1.4 mm
04/12/2022 14:404 °C96 %3.4 °C4 km/hOSO6 km/h01011 hPa1.2 mm
04/12/2022 14:204 °C95 %3.3 °C---01010 hPa0.8 mm
04/12/2022 14:104.1 °C95 %3.3 °C---01011 hPa0.4 mm
04/12/2022 13:504 °C95 %3.3 °C---01011 hPa0.0 mm
04/12/2022 13:403.9 °C95 %3.2 °C---01011 hPa0.0 mm
04/12/2022 13:204.1 °C95 %3.3 °C-O6 km/h01010 hPa0.0 mm
04/12/2022 13:104 °C95 %3.3 °C1 km/hOSO5 km/h01010 hPa0.0 mm
04/12/2022 12:503.8 °C95 %3.1 °C4 km/hOSO6 km/h01010 hPa0.0 mm
04/12/2022 12:403.9 °C95 %3.2 °C4 km/hOSO8 km/h01010 hPa0.0 mm
04/12/2022 12:203.8 °C95 %3.1 °C1 km/hOSO6 km/h01011 hPa0.0 mm
04/12/2022 12:103.8 °C95 %3.1 °C---01011 hPa0.0 mm
04/12/2022 11:503.7 °C95 %2.9 °C1 km/hOSO6 km/h01011 hPa0.0 mm
04/12/2022 11:403.7 °C95 %2.9 °C---01011 hPa0.0 mm
04/12/2022 11:203.7 °C95 %2.9 °C2 km/hOSO6 km/h01011 hPa0.0 mm
04/12/2022 11:103.6 °C95 %2.9 °C2 km/hSO6 km/h01011 hPa0.0 mm
04/12/2022 10:503.6 °C96 %3 °C1 km/hSSO6 km/h01011 hPa0.0 mm
04/12/2022 10:403.7 °C96 %3.1 °C---01010 hPa0.0 mm
04/12/2022 10:203.4 °C96 %2.8 °C3 km/hESE10 km/h01010 hPa0.0 mm
04/12/2022 10:103.4 °C96 %2.8 °C-E3 km/h01010 hPa0.0 mm
04/12/2022 09:503.3 °C96 %2.8 °C5 km/hESE10 km/h01010 hPa0.0 mm
04/12/2022 09:403.3 °C97 %2.8 °C5 km/hE11 km/h01010 hPa0.0 mm
04/12/2022 09:203.2 °C97 %2.7 °C3 km/hE11 km/h01010 hPa0.0 mm
04/12/2022 09:103.2 °C97 %2.7 °C5 km/hE11 km/h01010 hPa0.0 mm
04/12/2022 08:503.1 °C97 %2.6 °C-E5 km/h01010 hPa0.0 mm
04/12/2022 08:403 °C97 %2.6 °C2 km/hE6 km/h01010 hPa0.0 mm
04/12/2022 08:203 °C97 %2.6 °C2 km/hE6 km/h01010 hPa0.0 mm
04/12/2022 08:103 °C97 %2.6 °C4 km/hE6 km/h01010 hPa0.0 mm
04/12/2022 07:502.9 °C96 %2.4 °C1 km/hSE6 km/h01010 hPa0.0 mm
04/12/2022 07:402.9 °C96 %2.4 °C4 km/hESE11 km/h01010 hPa0.0 mm
04/12/2022 07:202.9 °C96 %2.4 °C5 km/hESE10 km/h01010 hPa0.0 mm
04/12/2022 07:102.9 °C96 %2.4 °C3 km/hESE6 km/h01010 hPa0.0 mm
04/12/2022 06:502.9 °C96 %2.4 °C2 km/hE8 km/h01010 hPa0.0 mm
04/12/2022 06:402.9 °C96 %2.4 °C2 km/hE6 km/h01010 hPa0.0 mm
04/12/2022 06:202.9 °C96 %2.4 °C2 km/hE6 km/h01010 hPa0.0 mm
04/12/2022 06:102.9 °C96 %2.4 °C1 km/hESE10 km/h01009 hPa0.0 mm
04/12/2022 05:503 °C96 %2.4 °C3 km/hE8 km/h01010 hPa0.0 mm
04/12/2022 05:402.9 °C96 %2.4 °C4 km/hE11 km/h01010 hPa0.0 mm
04/12/2022 05:203 °C96 %2.4 °C6 km/hE11 km/h01010 hPa0.0 mm
04/12/2022 05:102.9 °C96 %2.4 °C6 km/hE13 km/h01010 hPa0.0 mm
04/12/2022 04:503 °C96 %2.4 °C8 km/hE15 km/h01010 hPa0.0 mm
04/12/2022 04:403 °C96 %2.4 °C6 km/hESE15 km/h01010 hPa0.0 mm
04/12/2022 04:203 °C96 %2.4 °C6 km/hESE11 km/h01010 hPa0.0 mm
04/12/2022 04:103.1 °C96 %2.5 °C5 km/hE11 km/h01009 hPa0.0 mm
04/12/2022 03:503.1 °C96 %2.5 °C6 km/hE11 km/h01009 hPa0.0 mm
04/12/2022 03:403.1 °C96 %2.5 °C9 km/hE18 km/h01010 hPa0.0 mm
04/12/2022 03:203.1 °C96 %2.5 °C6 km/hE13 km/h01009 hPa0.0 mm
04/12/2022 03:103.1 °C96 %2.5 °C7 km/hE15 km/h01009 hPa0.0 mm
04/12/2022 02:503.2 °C96 %2.6 °C6 km/hE15 km/h01009 hPa0.0 mm
04/12/2022 02:403.2 °C97 %2.7 °C6 km/hE13 km/h01010 hPa0.0 mm
04/12/2022 02:203.2 °C97 %2.7 °C2 km/hE10 km/h01010 hPa0.0 mm
04/12/2022 02:103.2 °C97 %2.7 °C3 km/hE10 km/h01010 hPa0.0 mm
04/12/2022 01:503.2 °C97 %2.7 °C1 km/hENE10 km/h01010 hPa0.0 mm
04/12/2022 01:403.2 °C97 %2.7 °C1 km/hE10 km/h01010 hPa0.0 mm
04/12/2022 01:203.2 °C97 %2.7 °C1 km/hENE10 km/h01010 hPa0.0 mm
04/12/2022 01:103.2 °C97 %2.7 °C1 km/hE6 km/h01010 hPa0.0 mm
04/12/2022 00:403.2 °C96 %2.6 °C1 km/hENE6 km/h01010 hPa2.8 mm
04/12/2022 00:203.3 °C96 %2.7 °C1 km/hE10 km/h01011 hPa2.6 mm
04/12/2022 00:103.3 °C96 %2.7 °C2 km/hENE8 km/h01011 hPa2.6 mm


Minima :

Température : 2.9 °C
Humidité : 95 %
Point de rosée : 2.4 °C
Vent moyen : 1 km/h
Windchill : 0
Pression atm. : 1009 hPa
Maxima :

Température : 4.1 °C
Humidité : 97 %
Point de rosée : 3.4 °C
Vent moyen : 9 km/h
Windchill : 0
Pression atm. : 1011 hPa
Rafales max : 18 km/h
Cumul de pluie sur 24H : 2.8 mm

Colombiers est une commune du département Cher (18).
La station météorologique du réseau de l'association la plus proche de Colombiers est celle de Culan



Icône Facebook Association Météo Centre Icône Twitter Association Météo Centre Icône Chaîne Youtube Association Météo Centre Icône contact Association Météo Centre Icône Insta Association Météo Centre